createdAt,value
2019-05-07T00:02:22.592Z,9.60
2019-05-07T00:04:54.279Z,9.50
2019-05-07T00:07:25.781Z,8.68
2019-05-07T00:09:57.300Z,8.53
2019-05-07T00:12:28.765Z,11.05
2019-05-07T00:15:03.955Z,12.73
2019-05-07T00:17:33.598Z,8.33
2019-05-07T00:20:07.338Z,15.23
2019-05-07T00:22:38.901Z,11.53
2019-05-07T00:25:12.366Z,8.58
2019-05-07T00:27:44.162Z,13.62
2019-05-07T00:30:15.668Z,8.20
2019-05-07T00:32:47.232Z,10.28
2019-05-07T00:35:36.476Z,11.95
2019-05-07T00:38:13.747Z,8.05
2019-05-07T00:43:22.750Z,15.55
2019-05-07T00:45:56.918Z,11.12
2019-05-07T00:48:28.827Z,11.80
2019-05-07T00:51:18.476Z,10.82
2019-05-07T00:53:52.042Z,9.75
2019-05-07T00:56:23.230Z,11.43
2019-05-07T00:58:54.698Z,12.47
2019-05-07T01:01:26.199Z,12.75
2019-05-07T01:04:02.468Z,11.88
2019-05-07T01:06:33.521Z,12.13
2019-05-07T01:09:06.574Z,14.78
2019-05-07T01:11:38.333Z,16.07
2019-05-07T01:14:12.243Z,18.23
2019-05-07T01:16:43.814Z,18.77
2019-05-07T01:19:15.852Z,14.73
2019-05-07T01:21:47.388Z,16.75
2019-05-07T01:24:19.055Z,19.67
2019-05-07T01:26:52.881Z,15.85
2019-05-07T01:29:23.967Z,14.38
2019-05-07T01:31:57.066Z,17.15
2019-05-07T01:34:32.282Z,15.50
2019-05-07T01:37:03.775Z,15.93
2019-05-07T01:39:35.485Z,17.25
2019-05-07T01:42:07.084Z,15.98
2019-05-07T01:44:38.766Z,17.65
2019-05-07T01:47:10.338Z,15.72
2019-05-07T01:49:42.333Z,14.43
2019-05-07T01:52:15.429Z,12.50
2019-05-07T01:54:47.644Z,15.88
2019-05-07T01:57:19.646Z,16.37
2019-05-07T01:59:52.733Z,14.63
2019-05-07T02:02:26.200Z,15.13
2019-05-07T02:05:05.040Z,9.10
2019-05-07T02:07:39.118Z,10.32
2019-05-07T02:10:15.254Z,10.18
2019-05-07T02:12:46.847Z,9.30
2019-05-07T02:15:18.409Z,12.75
2019-05-07T02:17:52.570Z,7.97
2019-05-07T02:20:24.501Z,12.13
2019-05-07T02:22:56.071Z,10.50
2019-05-07T02:25:27.576Z,9.70
2019-05-07T02:27:59.151Z,11.08
2019-05-07T02:30:34.564Z,10.32
2019-05-07T02:33:04.077Z,10.13
2019-05-07T02:35:35.579Z,11.80
2019-05-07T02:38:13.785Z,12.05
2019-05-07T02:40:53.490Z,11.22
2019-05-07T02:43:25.212Z,11.05
2019-05-07T02:46:15.222Z,10.70
2019-05-07T02:48:33.425Z,9.60
2019-05-07T02:51:06.860Z,11.55
2019-05-07T02:53:43.163Z,14.20
2019-05-07T02:56:14.807Z,8.58
2019-05-07T02:58:46.280Z,10.72
2019-05-07T03:01:17.822Z,13.22
2019-05-07T03:03:52.798Z,11.22
2019-05-07T03:06:24.227Z,11.18
2019-05-07T03:08:56.093Z,9.48
2019-05-07T03:11:27.704Z,10.48
2019-05-07T03:13:59.410Z,9.75
2019-05-07T03:16:39.837Z,8.90
2019-05-07T03:19:04.385Z,6.78
2019-05-07T03:21:54.860Z,8.68
2019-05-07T03:24:43.314Z,9.63
2019-05-07T03:27:14.396Z,9.73
2019-05-07T03:29:47.781Z,8.53
2019-05-07T03:32:26.651Z,8.68
2019-05-07T03:34:57.839Z,7.10
2019-05-07T03:37:35.764Z,8.95
2019-05-07T03:40:07.567Z,7.62
2019-05-07T03:42:39.112Z,9.45
2019-05-07T03:45:13.692Z,10.43
2019-05-07T03:47:47.183Z,9.78
2019-05-07T03:50:18.686Z,10.45
2019-05-07T03:52:50.200Z,10.25
2019-05-07T03:55:23.379Z,8.45
2019-05-07T03:57:55.054Z,9.40
2019-05-07T04:00:26.593Z,9.88
2019-05-07T04:02:58.139Z,7.10
2019-05-07T04:05:29.668Z,8.90
2019-05-07T04:08:03.373Z,13.55
2019-05-07T04:10:35.163Z,10.32
2019-05-07T04:13:06.734Z,6.70
2019-05-07T04:15:38.577Z,6.70
2019-05-07T04:18:12.847Z,6.15
2019-05-07T04:20:44.028Z,7.03
2019-05-07T04:23:15.761Z,9.63
2019-05-07T04:26:04.215Z,6.67
2019-05-07T04:28:36.980Z,8.05
2019-05-07T04:31:08.524Z,5.78
2019-05-07T04:33:43.947Z,7.85
2019-05-07T04:36:22.924Z,9.45
2019-05-07T04:38:53.719Z,8.78
2019-05-07T04:41:25.206Z,7.53
2019-05-07T04:43:56.703Z,7.85
2019-05-07T04:46:28.244Z,12.20
2019-05-07T04:48:59.814Z,5.72
2019-05-07T04:51:43.348Z,9.25
2019-05-07T04:54:16.957Z,9.43
2019-05-07T04:56:52.874Z,6.97
2019-05-07T04:59:23.959Z,7.65
2019-05-07T05:02:04.164Z,7.28
2019-05-07T05:04:35.885Z,9.30
2019-05-07T05:07:07.372Z,8.08
2019-05-07T05:09:38.891Z,6.83
2019-05-07T05:12:13.153Z,6.90
2019-05-07T05:14:45.517Z,7.92
2019-05-07T05:17:18.005Z,8.50
2019-05-07T05:19:49.546Z,7.58
2019-05-07T05:22:22.704Z,8.03
2019-05-07T05:25:14.321Z,9.80
2019-05-07T05:27:46.626Z,9.98
2019-05-07T05:30:23.419Z,9.63
2019-05-07T05:32:54.960Z,7.80
2019-05-07T05:35:26.615Z,10.30
2019-05-07T05:37:58.062Z,7.25
2019-05-07T05:40:29.496Z,7.85
2019-05-07T05:43:02.650Z,6.37
2019-05-07T05:45:46.602Z,5.20
2019-05-07T05:48:18.204Z,7.10
2019-05-07T05:50:56.176Z,5.90
2019-05-07T05:53:32.826Z,6.72
2019-05-07T05:56:07.535Z,5.90
2019-05-07T05:58:43.046Z,6.92
2019-05-07T06:01:18.485Z,9.80
2019-05-07T06:04:03.111Z,4.80
2019-05-07T06:09:16.624Z,6.37
2019-05-07T06:11:52.048Z,8.53
2019-05-07T06:14:44.873Z,5.47
2019-05-07T06:17:33.670Z,4.87
2019-05-07T06:20:27.517Z,7.20
2019-05-07T06:23:18.643Z,5.05
2019-05-07T06:25:52.368Z,5.00
2019-05-07T06:28:25.781Z,6.50
2019-05-07T06:30:57.372Z,12.00
2019-05-07T06:33:29.665Z,7.40
2019-05-07T06:36:02.833Z,7.17
2019-05-07T06:38:36.191Z,5.28
2019-05-07T06:41:09.350Z,7.00
2019-05-07T06:43:45.986Z,8.38
2019-05-07T06:46:17.540Z,7.55
2019-05-07T06:48:49.015Z,9.65
2019-05-07T06:51:22.198Z,9.00
2019-05-07T06:53:54.576Z,6.45
2019-05-07T06:56:27.084Z,7.05
2019-05-07T06:59:18.614Z,10.98
2019-05-07T07:02:02.349Z,13.15
2019-05-07T07:04:38.576Z,12.73
2019-05-07T07:07:27.552Z,7.75
2019-05-07T07:09:55.641Z,10.00
2019-05-07T07:12:33.096Z,9.78
2019-05-07T07:15:07.811Z,7.67
2019-05-07T07:17:41.884Z,10.20
2019-05-07T07:20:13.944Z,13.60
2019-05-07T07:22:46.288Z,8.68
2019-05-07T07:25:18.106Z,8.68
2019-05-07T07:27:51.932Z,10.65
2019-05-07T07:30:24.619Z,8.68
2019-05-07T07:32:57.767Z,11.05
2019-05-07T07:35:32.519Z,8.50
2019-05-07T07:38:05.678Z,9.13
2019-05-07T07:40:39.030Z,10.40
2019-05-07T07:43:12.895Z,10.72
2019-05-07T07:45:44.598Z,9.40
2019-05-07T07:48:24.074Z,7.12
2019-05-07T07:50:55.071Z,6.12
2019-05-07T07:53:26.624Z,9.98
2019-05-07T07:56:16.246Z,10.48
2019-05-07T07:59:07.488Z,6.47
2019-05-07T08:01:42.153Z,8.78
2019-05-07T08:04:14.476Z,5.50
2019-05-07T08:06:47.111Z,6.50
2019-05-07T08:09:23.948Z,6.47
2019-05-07T08:11:55.996Z,8.53
2019-05-07T08:14:27.893Z,8.20
2019-05-07T08:17:02.438Z,6.70
2019-05-07T08:19:35.637Z,6.87
2019-05-07T08:22:07.213Z,7.22
2019-05-07T08:24:38.665Z,8.50
2019-05-07T08:27:12.902Z,5.28
2019-05-07T08:29:45.556Z,5.37
2019-05-07T08:32:25.801Z,8.38
2019-05-07T08:35:16.650Z,5.45
2019-05-07T08:37:51.716Z,5.85
2019-05-07T08:40:22.869Z,6.87
2019-05-07T08:42:56.232Z,6.92
2019-05-07T08:45:45.822Z,7.53
2019-05-07T08:48:18.936Z,7.53
2019-05-07T08:50:52.400Z,5.28
2019-05-07T08:53:23.704Z,6.22
2019-05-07T08:55:55.263Z,7.83
2019-05-07T08:58:26.751Z,8.88
2019-05-07T09:00:59.744Z,8.73
2019-05-07T09:03:43.771Z,8.05
2019-05-07T09:06:18.609Z,6.40
2019-05-07T09:08:50.251Z,8.13
2019-05-07T09:11:23.042Z,6.50
2019-05-07T09:13:56.493Z,7.37
2019-05-07T09:16:27.972Z,6.30
2019-05-07T09:19:02.047Z,10.70
2019-05-07T09:21:35.105Z,9.03
2019-05-07T09:24:08.544Z,11.75
2019-05-07T09:26:52.377Z,8.45
2019-05-07T09:29:45.351Z,7.78
2019-05-07T09:32:37.716Z,7.90
2019-05-07T09:35:13.679Z,8.60
2019-05-07T09:37:45.341Z,7.97
2019-05-07T09:40:17.052Z,10.18
2019-05-07T09:42:52.400Z,10.55
2019-05-07T09:45:23.882Z,8.30
2019-05-07T09:47:55.359Z,7.62
2019-05-07T09:50:27.887Z,7.25
2019-05-07T09:52:59.452Z,7.85
2019-05-07T09:55:32.793Z,7.60
2019-05-07T09:58:05.724Z,9.30
2019-05-07T10:00:39.022Z,10.78
2019-05-07T10:03:12.591Z,9.85
2019-05-07T10:08:16.861Z,9.23
2019-05-07T10:10:53.088Z,8.85
2019-05-07T10:13:25.391Z,8.78
2019-05-07T10:15:57.693Z,9.88
2019-05-07T10:18:32.056Z,13.45
2019-05-07T10:21:03.898Z,9.83
2019-05-07T10:23:35.520Z,9.98
2019-05-07T10:26:08.847Z,11.28
2019-05-07T10:28:44.023Z,10.20
2019-05-07T10:31:15.689Z,13.78
2019-05-07T10:33:47.388Z,13.38
2019-05-07T10:36:22.857Z,9.13
2019-05-07T10:38:55.164Z,11.60
2019-05-07T10:41:31.761Z,12.28
2019-05-07T10:44:02.992Z,10.30
2019-05-07T10:46:36.169Z,13.50
2019-05-07T10:49:09.372Z,10.93
2019-05-07T10:51:42.534Z,12.60
2019-05-07T10:54:14.846Z,14.63
2019-05-07T10:56:46.375Z,14.45
2019-05-07T10:59:22.358Z,13.78
2019-05-07T11:01:58.305Z,12.53
2019-05-07T11:04:40.365Z,14.65
2019-05-07T11:07:04.738Z,13.03
2019-05-07T11:09:36.345Z,14.35
2019-05-07T11:12:07.950Z,11.30
2019-05-07T11:14:39.629Z,15.65
2019-05-07T11:17:15.473Z,12.53
2019-05-07T11:19:47.056Z,15.28
2019-05-07T11:22:18.618Z,13.60
2019-05-07T11:24:52.207Z,16.62
2019-05-07T11:27:24.109Z,15.10
2019-05-07T11:29:55.579Z,17.27
2019-05-07T11:32:28.664Z,14.50
2019-05-07T11:35:00.146Z,16.02
2019-05-07T11:37:31.672Z,18.85
2019-05-07T11:40:05.540Z,19.35
2019-05-07T11:42:53.822Z,18.70
2019-05-07T11:45:43.256Z,15.55
2019-05-07T11:48:15.924Z,12.60
2019-05-07T11:51:03.851Z,12.43
2019-05-07T11:53:30.033Z,17.42
2019-05-07T11:56:02.520Z,13.90
2019-05-07T11:58:34.270Z,14.20
2019-05-07T12:01:09.148Z,17.65
2019-05-07T12:03:42.881Z,16.52
2019-05-07T12:06:14.530Z,16.60
2019-05-07T12:08:51.807Z,17.17
2019-05-07T12:11:22.577Z,16.70
2019-05-07T12:14:04.394Z,16.57
2019-05-07T12:16:35.980Z,15.50
2019-05-07T12:19:09.130Z,16.85
2019-05-07T12:21:42.186Z,17.73
2019-05-07T12:24:16.638Z,14.47
2019-05-07T12:26:49.454Z,17.42
2019-05-07T12:29:22.064Z,17.62
2019-05-07T12:31:58.577Z,17.95
2019-05-07T12:34:31.954Z,11.80
2019-05-07T12:37:03.637Z,17.90
2019-05-07T12:39:35.208Z,14.33
2019-05-07T12:42:06.745Z,13.68
2019-05-07T12:44:38.282Z,16.57
2019-05-07T12:47:12.222Z,13.68
2019-05-07T12:49:44.105Z,15.55
2019-05-07T12:52:17.243Z,12.68
2019-05-07T12:54:56.347Z,14.98
2019-05-07T12:57:28.209Z,11.63
2019-05-07T13:00:02.308Z,11.97
2019-05-07T13:02:40.801Z,11.60
2019-05-07T13:07:41.860Z,10.70
2019-05-07T13:10:16.116Z,13.90
2019-05-07T13:12:47.845Z,12.53
2019-05-07T13:15:25.044Z,14.35
2019-05-07T13:17:52.604Z,12.20
2019-05-07T13:20:24.366Z,14.15
2019-05-07T13:23:00.767Z,16.95
2019-05-07T13:25:32.532Z,15.68
2019-05-07T13:30:39.146Z,12.55
2019-05-07T13:33:12.304Z,13.43
2019-05-07T13:35:52.058Z,14.07
2019-05-07T13:38:36.601Z,15.85
2019-05-07T13:44:02.688Z,16.25
2019-05-07T13:46:35.950Z,21.95
2019-05-07T13:49:07.570Z,18.98
2019-05-07T13:51:39.271Z,21.00
2019-05-07T13:54:12.842Z,19.02
2019-05-07T13:56:44.284Z,19.05
2019-05-07T13:59:15.845Z,22.62
2019-05-07T14:01:49.520Z,21.45
2019-05-07T14:04:22.261Z,16.90
2019-05-07T14:06:57.211Z,13.68
2019-05-07T14:09:32.695Z,15.48
2019-05-07T14:12:05.147Z,16.30
2019-05-07T14:14:36.868Z,14.80
2019-05-07T14:17:08.534Z,16.90
2019-05-07T14:19:42.144Z,16.35
2019-05-07T14:22:18.662Z,15.13
2019-05-07T14:24:49.154Z,14.38
2019-05-07T14:27:20.664Z,14.25
2019-05-07T14:29:53.813Z,11.18
2019-05-07T14:32:29.764Z,15.55
2019-05-07T14:35:06.643Z,11.73
2019-05-07T14:37:41.730Z,11.68
2019-05-07T14:40:13.539Z,14.05
2019-05-07T14:42:46.734Z,13.55
2019-05-07T14:45:23.538Z,13.30
2019-05-07T14:47:54.286Z,16.27
2019-05-07T14:50:26.036Z,12.28
2019-05-07T14:52:57.739Z,15.20
2019-05-07T14:55:29.381Z,15.55
2019-05-07T14:58:01.981Z,13.40
2019-05-07T15:00:36.917Z,14.75
2019-05-07T15:03:08.479Z,13.62
2019-05-07T15:05:42.289Z,11.22
2019-05-07T15:08:14.538Z,11.22
2019-05-07T15:10:47.378Z,8.95
2019-05-07T15:13:21.721Z,10.58
2019-05-07T15:15:53.435Z,8.75
2019-05-07T15:18:46.327Z,7.75
2019-05-07T15:21:18.060Z,8.80
2019-05-07T15:23:52.963Z,7.70
2019-05-07T15:26:25.479Z,6.08
2019-05-07T15:28:58.638Z,9.95
2019-05-07T15:31:48.280Z,9.80
2019-05-07T15:34:22.049Z,8.58
2019-05-07T15:36:54.229Z,10.55
2019-05-07T15:39:29.111Z,10.68
2019-05-07T15:42:02.329Z,10.68
2019-05-07T15:44:34.154Z,9.03
2019-05-07T15:47:11.719Z,12.30
2019-05-07T15:49:43.757Z,12.60
2019-05-07T15:52:17.329Z,10.78
2019-05-07T15:54:49.160Z,13.90
2019-05-07T15:57:22.684Z,17.87
2019-05-07T15:59:56.705Z,15.50
2019-05-07T16:02:32.219Z,17.67
2019-05-07T16:05:05.957Z,18.95
2019-05-07T16:07:39.158Z,16.73
2019-05-07T16:10:12.139Z,16.70
2019-05-07T16:12:44.881Z,17.95
2019-05-07T16:15:18.078Z,17.65
2019-05-07T16:17:52.237Z,19.37
2019-05-07T16:20:24.958Z,21.05
2019-05-07T16:23:14.975Z,23.47
2019-05-07T16:25:38.700Z,19.55
2019-05-07T16:28:12.595Z,21.68
2019-05-07T16:30:44.662Z,14.90
2019-05-07T16:33:16.694Z,13.62
2019-05-07T16:35:48.346Z,17.92
2019-05-07T16:38:23.473Z,15.98
2019-05-07T16:40:56.319Z,15.15
2019-05-07T16:43:28.038Z,16.35
2019-05-07T16:45:59.580Z,16.95
2019-05-07T16:48:32.830Z,12.75
2019-05-07T16:51:05.534Z,18.20
2019-05-07T16:53:39.010Z,15.93
2019-05-07T16:56:12.368Z,15.48
2019-05-07T16:58:52.360Z,15.25
2019-05-07T17:01:24.746Z,16.60
2019-05-07T17:04:02.598Z,16.85
2019-05-07T17:06:34.204Z,16.17
2019-05-07T17:09:09.591Z,18.45
2019-05-07T17:11:43.630Z,17.48
2019-05-07T17:14:15.750Z,13.85
2019-05-07T17:16:47.330Z,18.87
2019-05-07T17:19:18.890Z,14.40
2019-05-07T17:21:52.283Z,17.37
2019-05-07T17:24:23.847Z,15.08
2019-05-07T17:26:55.315Z,16.23
2019-05-07T17:29:26.875Z,18.85
2019-05-07T17:31:58.453Z,11.25
2019-05-07T17:34:35.505Z,14.78
2019-05-07T17:37:08.649Z,14.75
2019-05-07T17:39:40.244Z,16.40
2019-05-07T17:42:11.937Z,16.02
2019-05-07T17:44:43.619Z,13.60
2019-05-07T17:47:17.033Z,14.33
2019-05-07T17:49:52.534Z,16.50
2019-05-07T17:52:23.920Z,13.62
2019-05-07T17:54:58.576Z,23.70
2019-05-07T17:57:33.349Z,19.57
2019-05-07T18:02:56.606Z,16.62
2019-05-07T18:05:29.293Z,19.92
2019-05-07T18:08:02.285Z,13.72
2019-05-07T18:10:35.709Z,18.45
2019-05-07T18:13:08.889Z,15.35
2019-05-07T18:15:42.605Z,14.58
2019-05-07T18:18:16.151Z,19.10
2019-05-07T18:20:50.193Z,16.85
2019-05-07T18:23:22.347Z,13.70
2019-05-07T18:25:55.615Z,17.25
2019-05-07T18:28:28.830Z,16.82
2019-05-07T18:31:02.047Z,21.20
2019-05-07T18:33:52.226Z,20.25
2019-05-07T18:36:24.701Z,16.95
2019-05-07T18:38:56.186Z,19.12
2019-05-07T18:41:27.918Z,26.62
2019-05-07T18:44:10.016Z,21.37
2019-05-07T18:46:33.058Z,23.20
2019-05-07T18:49:04.805Z,27.98
2019-05-07T18:51:37.386Z,24.63
2019-05-07T18:54:11.960Z,21.12
2019-05-07T18:56:43.487Z,20.62
2019-05-07T18:59:15.528Z,17.57
2019-05-07T19:01:52.721Z,22.52
2019-05-07T19:04:24.856Z,21.33
2019-05-07T19:07:02.573Z,22.35
2019-05-07T19:09:35.827Z,23.70
2019-05-07T19:12:09.263Z,18.30
2019-05-07T19:14:42.772Z,18.65
2019-05-07T19:17:15.855Z,21.07
2019-05-07T19:19:48.908Z,23.95
2019-05-07T19:22:22.199Z,22.07
2019-05-07T19:24:56.538Z,22.90
2019-05-07T19:27:28.427Z,23.30
2019-05-07T19:30:02.074Z,26.95
2019-05-07T19:32:35.324Z,24.65
2019-05-07T19:35:07.242Z,19.23
2019-05-07T19:37:42.398Z,22.00
2019-05-07T19:40:13.713Z,21.35
2019-05-07T19:42:47.128Z,19.73
2019-05-07T19:45:24.216Z,17.42
2019-05-07T19:47:56.189Z,24.82
2019-05-07T19:50:29.453Z,25.35
2019-05-07T19:53:03.035Z,22.80
2019-05-07T19:55:54.745Z,21.75
2019-05-07T19:58:28.495Z,29.52
2019-05-07T20:01:01.660Z,28.87
2019-05-07T20:03:35.752Z,27.85
2019-05-07T20:06:09.253Z,22.17
2019-05-07T20:08:43.091Z,22.20
2019-05-07T20:11:25.518Z,20.37
2019-05-07T20:13:57.370Z,26.30
2019-05-07T20:16:29.885Z,23.30
2019-05-07T20:19:01.569Z,24.30
2019-05-07T20:21:33.195Z,25.77
2019-05-07T20:24:04.993Z,21.15
2019-05-07T20:26:36.805Z,25.15
2019-05-07T20:29:08.537Z,20.52
2019-05-07T20:31:42.276Z,25.95
2019-05-07T20:34:14.152Z,21.25
2019-05-07T20:36:46.806Z,23.05
2019-05-07T20:39:19.269Z,23.22
2019-05-07T20:41:52.686Z,23.70
2019-05-07T20:44:24.484Z,20.37
2019-05-07T20:46:56.276Z,25.08
2019-05-07T20:49:28.303Z,17.62
2019-05-07T20:51:59.965Z,20.50
2019-05-07T20:54:33.145Z,22.37
2019-05-07T20:57:22.522Z,19.60
2019-05-07T20:59:55.069Z,28.77
2019-05-07T21:02:44.032Z,20.65
2019-05-07T21:05:02.931Z,23.45
2019-05-07T21:07:34.913Z,21.90
2019-05-07T21:10:07.809Z,21.85
2019-05-07T21:12:42.345Z,29.60
2019-05-07T21:15:14.309Z,25.92
2019-05-07T21:17:46.077Z,24.12
2019-05-07T21:20:17.773Z,25.72
2019-05-07T21:22:51.796Z,23.38
2019-05-07T21:25:22.821Z,22.15
2019-05-07T21:27:54.581Z,25.05
2019-05-07T21:30:27.562Z,23.22
2019-05-07T21:32:59.251Z,27.70
2019-05-07T21:35:32.363Z,23.67
2019-05-07T21:38:05.649Z,22.03
2019-05-07T21:40:37.809Z,33.67
2019-05-07T21:43:09.507Z,22.70
2019-05-07T21:45:42.296Z,24.57
2019-05-07T21:48:14.062Z,22.67
2019-05-07T21:50:45.849Z,24.75
2019-05-07T21:53:32.381Z,22.07
2019-05-07T21:56:19.159Z,25.77
2019-05-07T21:59:03.207Z,19.32
2019-05-07T22:01:43.420Z,21.00
2019-05-07T22:04:13.585Z,24.05
2019-05-07T22:06:45.708Z,21.33
2019-05-07T22:09:17.621Z,26.33
2019-05-07T22:11:49.304Z,31.82
2019-05-07T22:14:22.245Z,26.73
2019-05-07T22:16:54.690Z,29.92
2019-05-07T22:19:27.015Z,30.88
2019-05-07T22:21:58.613Z,29.12
2019-05-07T22:24:33.139Z,29.70
2019-05-07T22:27:05.872Z,31.07
2019-05-07T22:29:37.500Z,36.35
2019-05-07T22:32:13.556Z,35.28
2019-05-07T22:34:52.010Z,26.65
2019-05-07T22:37:25.134Z,29.20
2019-05-07T22:40:16.490Z,26.85
2019-05-07T22:42:50.608Z,23.52
2019-05-07T22:45:22.831Z,29.40
2019-05-07T22:47:54.516Z,23.70
2019-05-07T22:50:26.654Z,28.35
2019-05-07T22:52:58.268Z,30.25
2019-05-07T22:55:29.904Z,26.25
2019-05-07T22:58:03.153Z,27.98
2019-05-07T23:00:39.196Z,28.32
2019-05-07T23:03:13.323Z,31.00
2019-05-07T23:05:45.671Z,32.25
2019-05-07T23:08:17.322Z,32.48
2019-05-07T23:10:49.014Z,37.80
2019-05-07T23:13:22.488Z,36.98
2019-05-07T23:15:54.994Z,35.23
2019-05-07T23:18:26.738Z,36.77
2019-05-07T23:20:58.376Z,34.78
2019-05-07T23:23:32.034Z,31.97
2019-05-07T23:26:04.160Z,30.60
2019-05-07T23:28:35.834Z,35.80
2019-05-07T23:31:07.486Z,34.08
2019-05-07T23:33:39.223Z,31.07
2019-05-07T23:36:13.019Z,38.80
2019-05-07T23:38:46.486Z,34.87
2019-05-07T23:41:19.734Z,35.33
2019-05-07T23:44:09.081Z,32.00
2019-05-07T23:46:44.394Z,33.63
2019-05-07T23:49:14.292Z,34.03
2019-05-07T23:51:45.969Z,37.50
2019-05-07T23:54:17.715Z,36.20
2019-05-07T23:57:02.804Z,34.98
2019-05-07T23:59:23.254Z,36.90
